Time,TemperatureF,DewpointF,PressureIn,WindDirection,WindDirectionDegrees,WindSpeedMPH,WindSpeedGustMPH,Humidity,HourlyPrecipIn,Conditions,Clouds,dailyrainin,SolarRadiationWatts/m^2,SoftwareType,DateUTC
2013-01-11 00:01:00,25.9,22.8,30.58,North,9,0.0,0.0,88,0.00,,,0.00,0,Wunderground v.1.15,2013-01-11 05:01:00,
2013-01-11 00:10:00,25.7,23.4,30.57,North,9,0.0,1.0,91,0.00,,,0.00,0,Wunderground v.1.15,2013-01-11 05:10:00,
2013-01-11 00:20:00,25.8,23.5,30.57,North,9,0.0,0.0,91,0.00,,,0.00,0,Wunderground v.1.15,2013-01-11 05:20:00,
2013-01-11 00:30:00,25.7,23.4,30.56,North,5,0.0,1.0,91,0.00,,,0.00,0,Wunderground v.1.15,2013-01-11 05:30:00,
2013-01-11 00:40:00,25.8,23.5,30.56,North,9,1.0,1.0,91,0.00,,,0.00,0,Wunderground v.1.15,2013-01-11 05:40:00,
2013-01-11 00:50:00,25.5,23.0,30.56,North,5,0.0,0.0,90,0.00,,,0.00,0,Wunderground v.1.15,2013-01-11 05:50:00,
2013-01-11 01:00:00,25.2,22.7,30.56,North,9,0.0,0.0,90,0.00,,,0.00,0,Wunderground v.1.15,2013-01-11 06:00:00,
2013-01-11 01:10:00,25.0,22.7,30.56,North,9,0.0,0.0,91,0.00,,,0.00,0,Wunderground v.1.15,2013-01-11 06:10:00,
2013-01-11 01:20:00,24.6,22.1,30.55,North,9,0.0,0.0,90,0.00,,,0.00,0,Wunderground v.1.15,2013-01-11 06:20:00,
2013-01-11 01:30:00,24.3,22.3,30.55,North,9,0.0,0.0,92,0.00,,,0.00,0,Wunderground v.1.15,2013-01-11 06:30:00,
2013-01-11 01:40:00,24.3,22.6,30.54,North,9,0.0,0.0,93,0.00,,,0.00,0,Wunderground v.1.15,2013-01-11 06:40:00,
2013-01-11 01:50:00,24.2,22.2,30.55,North,9,0.0,0.0,92,0.00,,,0.00,0,Wunderground v.1.15,2013-01-11 06:50:00,
2013-01-11 02:00:00,23.9,21.9,30.55,North,5,0.0,0.0,92,0.00,,,0.00,0,Wunderground v.1.15,2013-01-11 07:00:00,
2013-01-11 02:10:00,24.0,22.5,30.54,North,9,0.0,0.0,94,0.00,,,0.00,0,Wunderground v.1.15,2013-01-11 07:10:00,
2013-01-11 02:20:00,23.9,22.2,30.54,North,9,0.0,0.0,93,0.00,,,0.00,0,Wunderground v.1.15,2013-01-11 07:20:00,
2013-01-11 02:30:00,23.9,22.4,30.54,North,9,0.0,0.0,94,0.00,,,0.00,0,Wunderground v.1.15,2013-01-11 07:30:00,
2013-01-11 02:40:00,24.0,22.5,30.53,North,9,0.0,0.0,94,0.00,,,0.00,0,Wunderground v.1.15,2013-01-11 07:40:00,
2013-01-11 02:50:00,24.3,22.8,30.53,North,5,1.0,1.0,94,0.00,,,0.00,0,Wunderground v.1.15,2013-01-11 07:50:00,
2013-01-11 03:00:00,24.4,22.9,30.53,North,9,0.0,0.0,94,0.00,,,0.00,0,Wunderground v.1.15,2013-01-11 08:00:00,
2013-01-11 03:10:00,24.5,23.0,30.52,North,5,0.0,0.0,94,0.00,,,0.00,0,Wunderground v.1.15,2013-01-11 08:10:00,
2013-01-11 03:20:00,24.7,23.2,30.51,North,9,0.0,0.0,94,0.00,,,0.00,0,Wunderground v.1.15,2013-01-11 08:20:00,
2013-01-11 03:30:00,24.7,23.2,30.50,North,5,0.0,0.0,94,0.00,,,0.00,0,Wunderground v.1.15,2013-01-11 08:30:00,
2013-01-11 03:40:00,24.6,22.9,30.50,North,9,0.0,0.0,93,0.00,,,0.00,0,Wunderground v.1.15,2013-01-11 08:40:00,
2013-01-11 03:50:00,24.5,22.8,30.50,North,9,0.0,1.0,93,0.00,,,0.00,0,Wunderground v.1.15,2013-01-11 08:50:00,
2013-01-11 04:00:00,24.5,23.0,30.51,North,9,0.0,0.0,94,0.00,,,0.00,0,Wunderground v.1.15,2013-01-11 09:00:00,
2013-01-11 04:10:00,24.5,23.0,30.49,North,9,0.0,0.0,94,0.00,,,0.00,0,Wunderground v.1.15,2013-01-11 09:10:00,
2013-01-11 04:20:00,24.5,23.0,30.49,North,9,0.0,0.0,94,0.00,,,0.00,0,Wunderground v.1.15,2013-01-11 09:20:00,
2013-01-11 04:30:00,24.6,23.1,30.48,ESE,111,0.0,0.0,94,0.00,,,0.00,0,Wunderground v.1.15,2013-01-11 09:30:00,
2013-01-11 04:40:00,24.5,23.0,30.48,ESE,111,0.0,1.0,94,0.00,,,0.00,0,Wunderground v.1.15,2013-01-11 09:40:00,
2013-01-11 04:50:00,24.7,23.2,30.48,ESE,111,0.0,0.0,94,0.00,,,0.00,0,Wunderground v.1.15,2013-01-11 09:50:00,
2013-01-11 05:01:00,24.7,23.0,30.49,ESE,111,0.0,0.0,93,0.00,,,0.00,0,Wunderground v.1.15,2013-01-11 10:01:00,
2013-01-11 05:10:00,24.7,23.2,30.49,ESE,111,0.0,0.0,94,0.00,,,0.00,0,Wunderground v.1.15,2013-01-11 10:10:00,
2013-01-11 05:20:00,24.6,23.1,30.49,ESE,111,0.0,0.0,94,0.00,,,0.00,0,Wunderground v.1.15,2013-01-11 10:20:00,
2013-01-11 05:30:00,24.5,23.0,30.48,ESE,111,0.0,0.0,94,0.00,,,0.00,0,Wunderground v.1.15,2013-01-11 10:30:00,
2013-01-11 05:40:00,24.5,23.0,30.48,ESE,111,0.0,0.0,94,0.00,,,0.00,0,Wunderground v.1.15,2013-01-11 10:40:00,
2013-01-11 05:50:00,24.6,23.1,30.48,ESE,111,0.0,0.0,94,0.00,,,0.00,0,Wunderground v.1.15,2013-01-11 10:50:00,
2013-01-11 06:00:00,24.6,23.1,30.48,ESE,111,0.0,0.0,94,0.00,,,0.00,0,Wunderground v.1.15,2013-01-11 11:00:00,
2013-01-11 06:10:00,24.6,23.1,30.47,ESE,111,0.0,0.0,94,0.00,,,0.00,0,Wunderground v.1.15,2013-01-11 11:10:00,
2013-01-11 06:20:00,24.6,23.1,30.48,ESE,111,0.0,0.0,94,0.00,,,0.00,0,Wunderground v.1.15,2013-01-11 11:20:00,
2013-01-11 06:30:00,24.6,23.1,30.48,ESE,111,0.0,0.0,94,0.00,,,0.00,0,Wunderground v.1.15,2013-01-11 11:30:00,
2013-01-11 06:40:00,24.7,23.5,30.48,ESE,111,0.0,0.0,95,0.00,,,0.00,0,Wunderground v.1.15,2013-01-11 11:40:00,
2013-01-11 06:50:00,24.7,23.5,30.48,ESE,111,0.0,0.0,95,0.00,,,0.00,0,Wunderground v.1.15,2013-01-11 11:50:00,
2013-01-11 07:00:00,24.7,23.2,30.48,ESE,111,0.0,0.0,94,0.00,,,0.00,0,Wunderground v.1.15,2013-01-11 12:00:00,
2013-01-11 07:10:00,24.8,23.6,30.47,ESE,112,0.0,0.0,95,0.00,,,0.00,0,Wunderground v.1.15,2013-01-11 12:10:00,
2013-01-11 07:20:00,24.8,23.6,30.48,ESE,111,0.0,0.0,95,0.00,,,0.00,0,Wunderground v.1.15,2013-01-11 12:20:00,
2013-01-11 07:30:00,24.8,23.3,30.47,ESE,111,0.0,0.0,94,0.00,,,0.00,0,Wunderground v.1.15,2013-01-11 12:30:00,
2013-01-11 07:40:00,24.8,23.6,30.48,ESE,111,0.0,0.0,95,0.00,,,0.00,7,Wunderground v.1.15,2013-01-11 12:40:00,
2013-01-11 07:50:00,25.0,23.8,30.47,ESE,111,0.0,0.0,95,0.00,,,0.00,14,Wunderground v.1.15,2013-01-11 12:50:00,
2013-01-11 08:00:00,25.3,24.1,30.47,ESE,111,0.0,0.0,95,0.00,,,0.00,21,Wunderground v.1.15,2013-01-11 13:00:00,
2013-01-11 08:10:00,25.5,24.3,30.47,ESE,111,0.0,0.0,95,0.00,,,0.00,26,Wunderground v.1.15,2013-01-11 13:10:00,
2013-01-11 08:20:00,25.8,24.6,30.47,ESE,111,0.0,0.0,95,0.00,,,0.00,33,Wunderground v.1.15,2013-01-11 13:20:00,
2013-01-11 08:30:00,26.0,24.8,30.47,ESE,111,0.0,0.0,95,0.00,,,0.00,26,Wunderground v.1.15,2013-01-11 13:30:00,
2013-01-11 08:40:00,26.4,25.2,30.46,ESE,111,0.0,0.0,95,0.00,,,0.00,35,Wunderground v.1.15,2013-01-11 13:40:00,
2013-01-11 08:50:00,26.8,25.6,30.45,ESE,111,0.0,0.0,95,0.00,,,0.00,54,Wunderground v.1.15,2013-01-11 13:50:00,
2013-01-11 09:00:00,27.5,26.0,30.45,ESE,111,0.0,0.0,94,0.00,,,0.00,54,Wunderground v.1.15,2013-01-11 14:00:00,
2013-01-11 09:10:00,28.2,26.4,30.44,ESE,111,0.0,1.0,93,0.00,,,0.00,53,Wunderground v.1.15,2013-01-11 14:10:00,
2013-01-11 09:20:00,28.8,26.5,30.42,SE,136,1.0,1.0,91,0.00,,,0.00,42,Wunderground v.1.15,2013-01-11 14:20:00,
2013-01-11 09:30:00,29.2,26.6,30.42,SE,133,1.0,2.0,90,0.00,,,0.00,53,Wunderground v.1.15,2013-01-11 14:30:00,
2013-01-11 09:40:00,29.4,26.6,30.41,SSE,159,1.0,1.0,89,0.00,,,0.00,35,Wunderground v.1.15,2013-01-11 14:40:00,
2013-01-11 09:50:00,29.7,26.6,30.42,SSE,158,1.0,1.0,88,0.00,,,0.00,28,Wunderground v.1.15,2013-01-11 14:50:00,
2013-01-11 10:00:00,29.8,26.7,30.43,SSE,159,0.0,0.0,88,0.00,,,0.00,30,Wunderground v.1.15,2013-01-11 15:00:00,
2013-01-11 10:10:00,30.0,26.9,30.43,SSE,158,0.0,0.0,88,0.00,,,0.00,35,Wunderground v.1.15,2013-01-11 15:10:00,
2013-01-11 10:20:00,30.4,27.3,30.43,SSE,158,0.0,0.0,88,0.00,,,0.00,39,Wunderground v.1.15,2013-01-11 15:20:00,
2013-01-11 10:30:00,30.9,27.5,30.43,SSE,159,0.0,0.0,87,0.00,,,0.00,58,Wunderground v.1.15,2013-01-11 15:30:00,
2013-01-11 10:40:00,31.4,27.4,30.43,SW,219,1.0,1.0,85,0.00,,,0.00,65,Wunderground v.1.15,2013-01-11 15:40:00,
2013-01-11 10:50:00,31.9,27.9,30.41,SE,135,1.0,1.0,85,0.00,,,0.00,104,Wunderground v.1.15,2013-01-11 15:50:00,
2013-01-11 11:00:00,32.5,27.9,30.40,SE,136,1.0,1.0,83,0.00,,,0.00,100,Wunderground v.1.15,2013-01-11 16:00:00,
2013-01-11 11:10:00,32.9,27.7,30.39,SW,232,1.0,1.0,81,0.00,,,0.00,107,Wunderground v.1.15,2013-01-11 16:10:00,
2013-01-11 11:20:00,33.3,28.1,30.38,SW,223,1.0,1.0,81,0.00,,,0.00,125,Wunderground v.1.15,2013-01-11 16:20:00,
2013-01-11 11:30:00,33.8,28.0,30.37,South,172,2.0,2.0,79,0.00,,,0.00,118,Wunderground v.1.15,2013-01-11 16:30:00,
2013-01-11 11:40:00,34.2,28.4,30.35,South,181,2.0,2.0,79,0.00,,,0.00,107,Wunderground v.1.15,2013-01-11 16:40:00,
2013-01-11 11:50:00,34.5,28.3,30.34,SW,222,2.0,3.0,78,0.00,,,0.00,98,Wunderground v.1.15,2013-01-11 16:50:00,
2013-01-11 12:00:00,34.9,28.4,30.34,South,179,1.0,1.0,77,0.00,,,0.00,67,Wunderground v.1.15,2013-01-11 17:00:00,
2013-01-11 12:10:00,35.2,29.0,30.34,SSW,193,0.0,0.0,78,0.00,,,0.00,46,Wunderground v.1.15,2013-01-11 17:10:00,
2013-01-11 12:20:00,35.4,28.6,30.33,SSW,193,0.0,0.0,76,0.00,,,0.00,84,Wunderground v.1.15,2013-01-11 17:20:00,
2013-01-11 12:30:00,35.9,29.1,30.33,South,189,0.0,1.0,76,0.00,,,0.00,86,Wunderground v.1.15,2013-01-11 17:30:00,
2013-01-11 12:40:00,36.3,29.8,30.32,ESE,107,1.0,2.0,77,0.00,,,0.00,53,Wunderground v.1.15,2013-01-11 17:40:00,
2013-01-11 12:50:00,36.4,29.2,30.32,South,180,2.0,3.0,75,0.00,,,0.00,35,Wunderground v.1.15,2013-01-11 17:50:00,
2013-01-11 13:00:00,36.3,31.0,30.30,South,178,1.0,1.0,81,0.00,,,0.00,28,Wunderground v.1.15,2013-01-11 18:00:00,
2013-01-11 13:10:00,36.1,30.8,30.31,ESE,112,1.0,4.0,81,0.00,,,0.00,30,Wunderground v.1.15,2013-01-11 18:10:00,
2013-01-11 13:20:00,36.0,30.7,30.30,South,190,2.0,2.0,81,0.00,,,0.00,30,Wunderground v.1.15,2013-01-11 18:20:00,
2013-01-11 13:30:00,36.2,30.6,30.29,ESE,116,1.0,3.0,80,0.00,,,0.00,46,Wunderground v.1.15,2013-01-11 18:30:00,
2013-01-11 13:40:00,36.6,30.1,30.29,SSE,163,3.0,3.0,77,0.00,,,0.00,62,Wunderground v.1.15,2013-01-11 18:40:00,
2013-01-11 13:50:00,37.2,29.3,30.28,WSW,241,2.0,2.0,73,0.00,,,0.00,98,Wunderground v.1.15,2013-01-11 18:50:00,
2013-01-11 14:00:00,37.9,30.0,30.27,SW,219,2.0,2.0,73,0.00,,,0.00,123,Wunderground v.1.15,2013-01-11 19:00:00,
2013-01-11 14:10:00,38.3,29.4,30.27,SSW,200,3.0,5.0,70,0.00,,,0.00,51,Wunderground v.1.15,2013-01-11 19:10:00,
2013-01-11 14:20:00,38.2,28.9,30.27,WNW,286,3.0,3.0,69,0.00,,,0.00,53,Wunderground v.1.15,2013-01-11 19:20:00,
2013-01-11 14:30:00,38.3,28.7,30.26,South,175,2.0,2.0,68,0.00,,,0.00,40,Wunderground v.1.15,2013-01-11 19:30:00,
2013-01-11 14:40:00,38.2,28.9,30.26,SW,226,2.0,2.0,69,0.00,,,0.00,12,Wunderground v.1.15,2013-01-11 19:40:00,
2013-01-11 14:50:00,38.0,29.8,30.27,SSW,205,1.0,7.0,72,0.00,,,0.00,19,Wunderground v.1.15,2013-01-11 19:50:00,
2013-01-11 15:00:00,37.5,30.9,30.27,SSW,207,2.0,3.0,77,0.00,,,0.01,23,Wunderground v.1.15,2013-01-11 20:00:00,
2013-01-11 15:10:00,36.6,31.9,30.27,SSW,212,1.0,1.0,83,0.05,,,0.02,7,Wunderground v.1.15,2013-01-11 20:10:00,
2013-01-11 15:20:00,35.9,32.1,30.27,SW,214,3.0,3.0,86,0.05,,,0.03,12,Wunderground v.1.15,2013-01-11 20:20:00,
2013-01-11 15:30:00,35.5,32.0,30.26,ESE,123,2.0,4.0,87,0.05,,,0.04,14,Wunderground v.1.15,2013-01-11 20:30:00,
2013-01-11 15:40:00,35.3,32.4,30.26,SW,221,2.0,2.0,89,0.04,,,0.04,16,Wunderground v.1.15,2013-01-11 20:40:00,
2013-01-11 15:50:00,35.2,32.3,30.25,South,178,2.0,3.0,89,0.00,,,0.04,5,Wunderground v.1.15,2013-01-11 20:50:00,
2013-01-11 16:00:00,35.3,32.1,30.25,SSW,205,2.0,2.0,88,0.00,,,0.04,5,Wunderground v.1.15,2013-01-11 21:00:00,
2013-01-11 16:10:00,35.3,32.1,30.24,South,181,2.0,4.0,88,0.00,,,0.04,7,Wunderground v.1.15,2013-01-11 21:10:00,
2013-01-11 16:20:00,35.3,32.1,30.24,SW,227,2.0,2.0,88,0.00,,,0.04,5,Wunderground v.1.15,2013-01-11 21:20:00,
2013-01-11 16:30:00,35.3,32.4,30.23,South,186,2.0,3.0,89,0.00,,,0.04,0,Wunderground v.1.15,2013-01-11 21:30:00,
2013-01-11 16:40:00,35.3,32.4,30.22,South,173,2.0,2.0,89,0.00,,,0.04,0,Wunderground v.1.15,2013-01-11 21:40:00,
2013-01-11 16:50:00,35.3,32.7,30.22,SSE,156,2.0,2.0,90,0.00,,,0.04,0,Wunderground v.1.15,2013-01-11 21:50:00,
2013-01-11 17:00:00,35.4,32.8,30.22,SSE,168,2.0,4.0,90,0.00,,,0.04,0,Wunderground v.1.15,2013-01-11 22:00:00,
2013-01-11 17:10:00,35.4,33.3,30.22,SSW,206,3.0,3.0,92,0.00,,,0.05,0,Wunderground v.1.15,2013-01-11 22:10:00,
2013-01-11 17:20:00,35.3,33.2,30.22,SW,230,1.0,1.0,92,0.00,,,0.05,0,Wunderground v.1.15,2013-01-11 22:20:00,
2013-01-11 17:30:00,35.2,33.4,30.22,SW,232,1.0,3.0,93,0.00,,,0.05,0,Wunderground v.1.15,2013-01-11 22:30:00,
2013-01-11 17:40:00,35.2,33.4,30.21,SSW,209,2.0,2.0,93,0.00,,,0.06,0,Wunderground v.1.15,2013-01-11 22:40:00,
2013-01-11 17:50:00,35.4,33.8,30.21,SW,223,2.0,2.0,94,0.00,,,0.06,0,Wunderground v.1.15,2013-01-11 22:50:00,
2013-01-11 18:01:00,35.5,33.9,30.21,South,177,2.0,2.0,94,0.00,,,0.06,0,Wunderground v.1.15,2013-01-11 23:01:00,
2013-01-11 18:10:00,35.5,33.9,30.20,SSE,163,2.0,8.0,94,0.00,,,0.06,0,Wunderground v.1.15,2013-01-11 23:10:00,
2013-01-11 18:20:00,35.6,34.0,30.20,SW,225,2.0,2.0,94,0.00,,,0.06,0,Wunderground v.1.15,2013-01-11 23:20:00,
2013-01-11 18:30:00,35.6,34.0,30.19,SSW,205,2.0,2.0,94,0.00,,,0.07,0,Wunderground v.1.15,2013-01-11 23:30:00,
2013-01-11 18:40:00,35.6,34.3,30.19,SSW,209,2.0,2.0,95,0.05,,,0.08,0,Wunderground v.1.15,2013-01-11 23:40:00,
2013-01-11 18:50:00,35.7,34.4,30.19,SW,220,3.0,3.0,95,0.07,,,0.09,0,Wunderground v.1.15,2013-01-11 23:50:00,
2013-01-11 19:00:00,35.6,34.3,30.18,SW,230,2.0,2.0,95,0.09,,,0.11,0,Wunderground v.1.15,2013-01-12 00:00:00,
2013-01-11 19:10:00,35.7,34.7,30.18,SSW,212,2.0,2.0,96,0.09,,,0.12,0,Wunderground v.1.15,2013-01-12 00:10:00,
2013-01-11 19:20:00,35.7,34.7,30.18,WSW,258,2.0,4.0,96,0.05,,,0.12,0,Wunderground v.1.15,2013-01-12 00:20:00,
2013-01-11 19:30:00,35.7,34.7,30.17,South,188,1.0,5.0,96,0.00,,,0.12,0,Wunderground v.1.15,2013-01-12 00:30:00,
2013-01-11 19:40:00,35.7,34.7,30.16,SSW,197,2.0,2.0,96,0.00,,,0.12,0,Wunderground v.1.15,2013-01-12 00:40:00,
2013-01-11 19:50:00,35.7,34.7,30.14,SSE,155,3.0,3.0,96,0.00,,,0.13,0,Wunderground v.1.15,2013-01-12 00:50:00,
2013-01-11 20:00:00,35.8,34.8,30.13,SW,214,2.0,2.0,96,0.00,,,0.13,0,Wunderground v.1.15,2013-01-12 01:00:00,
2013-01-11 20:10:00,36.0,35.2,30.13,SW,223,3.0,4.0,97,0.00,,,0.13,0,Wunderground v.1.15,2013-01-12 01:10:00,
2013-01-11 20:20:00,36.0,35.2,30.12,West,259,2.0,2.0,97,0.00,,,0.13,0,Wunderground v.1.15,2013-01-12 01:20:00,
2013-01-11 20:30:00,36.1,35.3,30.17,WSW,237,2.0,2.0,97,0.00,,,0.13,0,Wunderground v.1.15,2013-01-12 01:30:00,
2013-01-11 20:40:00,36.3,35.5,30.17,North,360,1.0,3.0,97,0.00,,,0.13,0,Wunderground v.1.15,2013-01-12 01:40:00,
2013-01-11 20:50:00,36.5,35.7,30.17,SSW,198,2.0,2.0,97,0.00,,,0.13,0,Wunderground v.1.15,2013-01-12 01:50:00,
2013-01-11 21:00:00,36.4,35.6,30.16,WSW,239,2.0,2.0,97,0.00,,,0.13,0,Wunderground v.1.15,2013-01-12 02:00:00,
2013-01-11 21:10:00,36.4,35.6,30.16,SW,226,1.0,1.0,97,0.00,,,0.13,0,Wunderground v.1.15,2013-01-12 02:10:00,
2013-01-11 21:20:00,36.2,35.2,30.16,SSW,195,1.0,1.0,96,0.00,,,0.13,0,Wunderground v.1.15,2013-01-12 02:20:00,
2013-01-11 21:30:00,36.3,35.5,30.17,WNW,289,1.0,1.0,97,0.00,,,0.13,0,Wunderground v.1.15,2013-01-12 02:30:00,
2013-01-11 21:40:00,36.5,35.7,30.16,SSE,150,2.0,2.0,97,0.00,,,0.13,0,Wunderground v.1.15,2013-01-12 02:40:00,
2013-01-11 21:50:00,36.5,35.7,30.17,WSW,240,2.0,2.0,97,0.00,,,0.13,0,Wunderground v.1.15,2013-01-12 02:50:00,
2013-01-11 22:00:00,36.5,35.7,30.17,South,182,2.0,2.0,97,0.00,,,0.13,0,Wunderground v.1.15,2013-01-12 03:00:00,
2013-01-11 22:10:00,36.5,35.7,30.16,South,179,2.0,2.0,97,0.00,,,0.13,0,Wunderground v.1.15,2013-01-12 03:10:00,
2013-01-11 22:20:00,36.6,35.8,30.16,South,180,2.0,2.0,97,0.00,,,0.13,0,Wunderground v.1.15,2013-01-12 03:20:00,
2013-01-11 22:30:00,36.7,35.9,30.15,SSW,201,2.0,2.0,97,0.00,,,0.13,0,Wunderground v.1.15,2013-01-12 03:30:00,
2013-01-11 22:40:00,36.6,35.8,30.15,SSW,211,2.0,3.0,97,0.00,,,0.13,0,Wunderground v.1.15,2013-01-12 03:40:00,
2013-01-11 22:50:00,36.6,35.8,30.15,SW,219,2.0,2.0,97,0.00,,,0.13,0,Wunderground v.1.15,2013-01-12 03:50:00,
2013-01-11 23:01:00,36.9,36.4,30.15,WSW,247,2.0,3.0,98,0.00,,,0.13,0,Wunderground v.1.15,2013-01-12 04:01:00,
2013-01-11 23:10:00,37.0,36.5,30.15,SW,234,2.0,3.0,98,0.00,,,0.13,0,Wunderground v.1.15,2013-01-12 04:10:00,
2013-01-11 23:20:00,37.1,36.6,30.15,South,183,1.0,1.0,98,0.00,,,0.13,0,Wunderground v.1.15,2013-01-12 04:20:00,
2013-01-11 23:30:00,37.1,36.6,30.16,ESE,105,1.0,1.0,98,0.00,,,0.13,0,Wunderground v.1.15,2013-01-12 04:30:00,
2013-01-11 23:40:00,37.1,36.3,30.16,NW,309,1.0,1.0,97,0.00,,,0.13,0,Wunderground v.1.15,2013-01-12 04:40:00,
2013-01-11 23:50:00,37.1,36.3,30.14,WSW,238,1.0,1.0,97,0.00,,,0.13,0,Wunderground v.1.15,2013-01-12 04:50:00,